Sunday, November 23, 2014
15:55 UTC
  |  Log In   |  Register Free
Airport Search:

Lonesome Pine Airport
(KLNP)

Lonesome Pine Airport Diagram
No Airport Diagram Available

FAA data valid effective November 13, 2014 - January 08, 2015 (unless otherwise noted).

 
 
 
 
 
 
 
 
 
 
 
 
 
 

Current Aviation Weather for Lonesome Pine Airport (KLNP)

The most recent METAR observation for KLNP was updated at: 1513
METAR Summary (Translated METAR)
KLNP
231455Z AUTO 15007KT 10SM SCT060 11/03 A3006 RMK AO2
KVJI
231455Z AUTO 11007KT 10SM SCT060 BKN080 BKN120 12/05 A3008 RMK AO2 T01150047
(29.9 nm SE from KLNP)
KTRI
231453Z 00000KT 10SM FEW080 OVC100 07/03 A3006 RMK AO2 RAB29E44 SLP175 P0000 60000 T00670028 58021
(31.3 nm SE from KLNP)
TAF Summary (Translated TAF)
KTRI
(31.3 nm SE from KLNP)
231125Z 2312/2412 08003KT P6SM BKN150 FM231600 10006KT P6SM SCT050 BKN100 FM232100 13009KT P6SM -RA SCT035 OVC070 FM240300 21009KT 6SM -RA SCT025 BKN050 FM240800 20007KT 5SM -RA BR OVC025
  Airport Weather Conditions for KLNP

 Current Weather at LNP
52° F
Mostly Cloudy
South winds at 4.6 mph
LNP NOAA Radar

Pressure: 30.07 in
Humidity: 58%
Wind: South at 4.6 MPH (4 KT)
Dew Point: 37.4°F
Visibility: 10.00 mi


Airport Weather Forecast for KLNP

Translated METAR and TAF for KLNP
Translated METAR for KLNP (1550 UTC 23 November 2014)
found at http://aviationweather.gov/adds/metars/
 
METAR text: KLNP 231535Z AUTO 00000KT 10SM SCT070 BKN120 12/04 A3004 RMK AO2
Conditions at: KLNP (WISE/LONESOME PI, VA, US) observed 1535 UTC 23 November 2014
Temperature: 12.0°C (54°F)
Dewpoint: 4.0°C (39°F) [RH = 58%]
Pressure (altimeter): 30.04 inches Hg (1017.4 mb)
Winds: calm
Visibility: 10 or more miles (16+ km)
Ceiling: 12000 feet AGL
Clouds: scattered clouds at 7000 feet AGL
broken clouds at 12000 feet AGL
Weather: automated observation with no human augmentation;
there may or may not be significant weather present at this time
Translated TAF for KLNP

There is no translated TAF available for this airport

Find All Airport Services Find A Hotel Find A Rental Car Find A Golf Course Find A Restaurant $100 Hamburger



FBO's on the Field
FBO Company Facility Photos Services Transportation Aviation Fuel Prices: Prices include tax
Catering Weather Repair Courtesy Rental Type 100LL JetA JetA+ MOGAS 8087
 
Lonesome Pine Airport

This FBO has not yet been rated
FS:Shell
Last Updated: Nov-03
Login to update fuel prices
SS:
Contact Lonesome Pine AirportMore FBO Information
 
Add another FBO Facility Photos Catering Weather Repair Courtesy Rental Type 100LL JetA JetA+ MOGAS 8087
Services Transportation Aviation Fuel Prices: Prices include tax


model-print
model-print
model-print
model-print